KMCE

Merced Regional / Macready Field Airport

Merced, California, USA
METAR KMCE 241253Z AUTO 31007KT 10SM CLR 12/09 A2995 RMK AO2 SLP140 T01170094
Observed Flight Rules
May-24 @ 12:53 UTC (an hour ago) Visual Flight Rules
Wind Visibility Clouds
310° at 7 knots 10 miles
  • Clear skies
Temperatures Readings
Current 12°C / 54°F
Dewpoint 9°C / 48°F
Humidity 82%
Altimeter 29.95" Hg
Pressure 1014 hPa
Elevation 47
METAR KMCE 241253Z AUTO 31007KT 10SM CLR 12/09 A2995 RMK AO2 SLP140 T01170094
Observed Flight Rules
May-24 @ 12:53 UTC
(an hour ago)
VFR
Wind Visibility
310° at 7 knots 10 miles
Clouds
  • Clear skies
Temperature Dewpoint
12°C / 54°F 9°C / 48°F
Humidity Altimeter Pressure
82% 29.95" Hg 1014 hPa